Flight Track Log - Related Links

Times and Time Zones

All times are in EDT time to prevent confusion due to time zone crossing. See the N78LS flight status page for this flight to view local times or setup timezone preferences in your user account.

Time Position Orientation Groundspeed Altitude Reporting Facility
EDT Latitude Longitude Course Direction KTS MPH feet Rate Location/Type
Tue 09:10:21 AM 40.6500 -73.6167 217° Southwest 167 192 4,300  Level New York TRACON
Tue 09:11:21 AM 40.6167 -73.6667 229° Southwest 179 206 5,000 583 Climbing New York TRACON
Tue 09:12:00 AM 40.6362 -73.7219 252° West  Level FlightAware Approximate
Tue 09:13:00 AM 40.6053 -73.7723 201° Southwest  Level FlightAware Approximate
Tue 09:13:16 AM 40.5550 -73.7647 230° Southwest 189 217 6,000  Level New York Center
Tue 09:14:00 AM 40.5679 -73.8142 237° Southwest  Level FlightAware Approximate
Tue 09:14:17 AM 40.5081 -73.8119 217° Southwest 189 217 6,600  Level New York Center
Tue 09:15:00 AM 40.5241 -73.8426 217° Southwest  Level FlightAware Approximate
Tue 09:15:18 AM 40.4739 -73.8431 215° Southwest 184 212 7,100  Level New York Center
Tue 09:16:16 AM 40.4225 -73.8925 216° Southwest 204 235 7,100 1,966 Level New York Center
Tue 09:17:17 AM 40.3800 -73.9261 211° Southwest 211 243 11,000 446 Climbing New York Center
Tue 09:18:17 AM 40.3308 -73.9672 213° Southwest 188 216 8,000 -1,240 Descending New York Center
Tue 09:19:18 AM 40.2944 -73.9983 213° Southwest 180 207 8,500 508 Climbing New York Center
Tue 09:20:15 AM 40.2497 -74.0397 215° Southwest 180 207 9,000 508 Climbing New York Center
Tue 09:21:16 AM 40.2072 -74.0703 209° Southwest 175 201 9,500 496 Climbing New York Center
Tue 09:22:16 AM 40.1686 -74.1064 216° Southwest 175 201 10,000 545 Climbing New York Center
Tue 09:23:17 AM 40.1344 -74.1375 215° Southwest 175 201 10,600 545 Climbing New York Center
Tue 09:24:17 AM 40.0958 -74.1708 213° Southwest 175 201 11,100 248 Climbing New York Center
Tue 09:25:18 AM 40.0508 -74.2147 217° Southwest 175 201 11,100  Level New York Center
Tue 09:26:18 AM 40.0081 -74.2533 215° Southwest 181 208 11,100 -51 Level New York Center
Tue 09:27:16 AM 39.9650 -74.2944 216° Southwest 186 214 11,000  Descending New York Center
Tue 09:28:17 AM 39.9264 -74.3303 215° Southwest 191 220 11,100 50 Climbing New York Center
Tue 09:29:17 AM 39.8836 -74.3714 216° Southwest 196 226 11,100  Level New York Center
Tue 09:31:39 AM 39.7853 -74.4628 216° Southwest 192 221 11,100 30 Level Washington Center
Tue 09:32:39 AM 39.7439 -74.5039 217° Southwest 192 221 11,200 51 Climbing Washington Center
Tue 09:33:37 AM 39.7028 -74.5450 218° Southwest 192 221 11,200  Level Washington Center
Tue 09:34:38 AM 39.6592 -74.5833 214° Southwest 192 221 11,200  Level Washington Center
Tue 09:35:38 AM 39.6181 -74.6244 218° Southwest 192 221 11,200  Level Washington Center
Tue 09:36:39 AM 39.5744 -74.6628 214° Southwest 192 221 11,200  Level Washington Center
Tue 09:37:37 AM 39.5311 -74.7036 216° Southwest 192 221 11,200  Level Washington Center
Tue 09:38:38 AM 39.4856 -74.7472 216° Southwest 192 221 11,200  Level Washington Center
Tue 09:39:38 AM 39.4442 -74.7853 215° Southwest 192 221 11,200  Level Washington Center
Tue 09:40:38 AM 39.4006 -74.8261 216° Southwest 192 221 11,200  Level Washington Center
Tue 09:41:39 AM 39.3592 -74.8642 215° Southwest 192 221 11,200  Level Washington Center
Tue 09:42:39 AM 39.3156 -74.9047 216° Southwest 192 221 11,200  Level Washington Center
Tue 09:43:37 AM 39.2742 -74.9428 215° Southwest 192 221 11,200 51 Level Washington Center
Tue 09:44:37 AM 39.2283 -74.9728 207° Southwest 192 221 11,300 250 Climbing Washington Center
Tue 09:45:37 AM 39.1847 -74.9997 206° Southwest 182 209 11,700 248 Climbing Washington Center
Tue 09:46:38 AM 39.1392 -75.0242 203° Southwest 177 204 11,800 246 Climbing Washington Center
Tue 09:47:39 AM 39.0956 -75.0514 206° Southwest 177 204 12,200 198 Climbing Washington Center
Tue 09:48:39 AM 39.0539 -75.0731 202° Southwest 177 204 12,200  Level Washington Center
Tue 09:49:38 AM 39.0061 -75.1028 206° Southwest 177 204 12,200  Level Washington Center
Tue 09:50:38 AM 38.9583 -75.1272 202° Southwest 182 209 12,200  Level Washington Center
Tue 09:51:39 AM 38.9103 -75.1567 205° Southwest 187 215 12,200  Level Washington Center
Tue 09:52:37 AM 38.8625 -75.1839 204° Southwest 192 221 12,200  Level Washington Center
Tue 09:53:38 AM 38.8125 -75.2133 205° Southwest 192 221 12,200  Level Washington Center
Tue 09:54:39 AM 38.7647 -75.2428 206° Southwest 192 221 12,200  Level Washington Center
Tue 09:55:39 AM 38.7189 -75.2722 207° Southwest 192 221 12,200  Level Washington Center
Tue 09:56:37 AM 38.6711 -75.3044 208° Southwest 198 228 12,200  Level Washington Center
Tue 09:57:38 AM 38.6233 -75.3339 206° Southwest 198 228 12,200 -50 Level Washington Center
Tue 09:58:38 AM 38.5733 -75.3658 207° Southwest 198 228 12,100 -50 Descending Washington Center
Tue 09:59:39 AM 38.5253 -75.3981 208° Southwest 198 228 12,100  Level Washington Center
Tue 10:00:39 AM 38.4775 -75.4272 206° Southwest 198 228 12,100  Level Washington Center
Tue 10:01:37 AM 38.4294 -75.4567 206° Southwest 198 228 12,100  Level Washington Center
Tue 10:02:38 AM 38.3817 -75.4883 207° Southwest 198 228 12,100  Level Washington Center
Tue 10:03:38 AM 38.3336 -75.5203 208° Southwest 198 228 12,100  Level Washington Center
Tue 10:04:38 AM 38.2858 -75.5442 201° Southwest 203 234 12,100  Level Washington Center
Tue 10:05:39 AM 38.2419 -75.5786 212° Southwest 203 234 12,100  Level Washington Center
Tue 10:06:37 AM 38.1897 -75.6050 202° Southwest 198 228 12,100  Level Washington Center
Tue 10:07:39 AM 38.1439 -75.6367 209° Southwest 198 228 12,100  Level Washington Center
Tue 10:08:39 AM 38.0939 -75.6631 203° Southwest 193 222 12,100  Level Washington Center
Tue 10:09:37 AM 38.0458 -75.6944 207° Southwest 193 222 12,100  Level Washington Center
Tue 10:10:38 AM 37.9978 -75.7261 207° Southwest 193 222 12,100  Level Washington Center
Tue 10:11:39 AM 37.9519 -75.7578 209° Southwest 193 222 12,100  Level Washington Center
Tue 10:12:37 AM 37.9061 -75.7892 208° Southwest 193 222 12,100  Level Washington Center
Tue 10:13:38 AM 37.8581 -75.8153 203° Southwest 193 222 12,100  Level Washington Center
Tue 10:14:38 AM 37.8122 -75.8389 202° Southwest 199 229 12,100  Level Washington Center
Tue 10:15:39 AM 37.7642 -75.8703 207° Southwest 186 214 12,100  Level Washington Center
Tue 10:16:37 AM 37.7161 -75.9017 207° Southwest 180 207 12,100  Level Washington Center
Tue 10:17:35 AM 37.6700 -75.9303 206° Southwest 191 220 12,100  Level Washington Center
Tue 10:18:39 AM 37.6219 -75.9561 203° Southwest 180 207 12,100  Level Washington Center
Tue 10:19:37 AM 37.5697 -75.9717 193° South 185 213 12,100  Level Washington Center
Tue 10:20:38 AM 37.5178 -75.9767 184° South 191 220 12,100  Level Washington Center
Tue 10:21:32 AM 37.4656 -75.9869 189° South 189 217 12,100  Level Washington Center
Tue 10:21:39 AM 37.4656 -75.9869 189° South 191 220 12,100  Level Washington Center
Tue 10:22:37 AM 37.4133 -75.9944 187° South 191 220 12,100  Level Washington Center
Tue 10:23:37 AM 37.3592 -75.9994 184° South 196 226 12,100 -48 Level Washington Center
Tue 10:24:41 AM 37.3028 -76.0200 196° South 187 215 12,000  Descending Washington Center
Tue 10:25:39 AM 37.2547 -76.0433 201° Southwest 190 219 12,100 50 Climbing Washington Center
Tue 10:26:40 AM 37.2067 -76.0664 201° Southwest 189 217 12,100  Level Washington Center
Tue 10:27:35 AM 37.1606 -76.0869 200° South 189 217 12,100  Level Washington Center
Tue 10:28:42 AM 37.1042 -76.1100 198° South 189 217 12,100  Level Washington Center
Tue 10:29:49 AM 37.0497 -76.1331 199° South 189 217 12,100 -47 Level Washington Center
Tue 10:30:49 AM 36.9997 -76.1561 200° South 191 220 12,000  Descending Washington Center
Tue 10:31:50 AM 36.9475 -76.1792 199° South 190 219 12,100  Climbing Washington Center
Tue 10:33:02 AM 36.8889 -76.2047 199° South 194 223 12,000  Descending Washington Center
Tue 10:33:45 AM 36.8636 -76.2408 229° Southwest 186 214 12,100 98 Climbing Washington Center
Tue 10:34:03 AM 36.8531 -76.2486 211° Southwest 184 212 12,100  Level Washington Center
Tue 10:34:40 AM 36.8300 -76.2847 231° Southwest 186 214 12,100  Level Washington Center
Tue 10:35:01 AM 36.8153 -76.3028 224° Southwest 189 217 12,100  Level Washington Center
Tue 10:35:40 AM 36.7942 -76.3311 227° Southwest 187 215 12,100  Level Washington Center
Tue 10:36:02 AM 36.7794 -76.3492 224° Southwest 189 217 12,100  Level Washington Center
Tue 10:36:41 AM 36.7564 -76.3775 225° Southwest 188 216 12,100  Level Washington Center
Tue 10:37:03 AM 36.7417 -76.3956 225° Southwest 189 217 12,100  Level Washington Center
Tue 10:37:54 AM 36.7142 -76.4367 230° Southwest 187 215 12,100  Level Washington Center
Tue 10:39:01 AM 36.6764 -76.4881 227° Southwest 189 217 12,100 -47 Level Washington Center
Tue 10:40:02 AM 36.6383 -76.5342 224° Southwest 184 212 12,000  Descending Washington Center
Tue 10:41:03 AM 36.6028 -76.5778 225° Southwest 184 212 12,100 50 Climbing Washington Center
Tue 10:42:01 AM 36.5711 -76.6214 228° Southwest 189 217 12,100  Level Washington Center
Tue 10:43:02 AM 36.5350 -76.6672 226° Southwest 189 217 12,100  Level Washington Center
Tue 10:44:03 AM 36.4992 -76.7133 226° Southwest 189 217 12,100  Level Washington Center
Tue 10:45:03 AM 36.4592 -76.7489 216° Southwest 183 211 12,100  Level Washington Center
Tue 10:46:01 AM 36.4131 -76.7844 212° Southwest 183 211 12,100  Level Washington Center
Tue 10:47:03 AM 36.3708 -76.8172 212° Southwest 188 216 12,100  Level Washington Center
Tue 10:48:03 AM 36.3267 -76.8500 211° Southwest 188 216 12,100  Level Washington Center
Tue 10:49:02 AM 36.2825 -76.8828 211° Southwest 188 216 12,100  Level Washington Center
Tue 10:50:02 AM 36.2406 -76.9156 212° Southwest 188 216 12,100  Level Washington Center
Tue 10:51:03 AM 36.1942 -76.9508 212° Southwest 188 216 12,100  Level Washington Center
Tue 10:52:01 AM 36.1481 -76.9836 210° Southwest 188 216 12,100  Level Washington Center
Tue 10:53:01 AM 36.1039 -77.0161 211° Southwest 188 216 12,100  Level Washington Center
Tue 10:54:02 AM 36.0594 -77.0489 211° Southwest 188 216 12,100  Level Washington Center
Tue 10:55:02 AM 36.0153 -77.0814 211° Southwest 188 216 12,100  Level Washington Center
Tue 10:56:03 AM 35.9711 -77.1139 211° Southwest 188 216 12,100  Level Washington Center
Tue 10:57:01 AM 35.9289 -77.1492 214° Southwest 188 216 12,100  Level Washington Center
Tue 10:58:02 AM 35.8847 -77.1814 211° Southwest 188 216 12,100  Level Washington Center
Tue 10:59:03 AM 35.8383 -77.2139 210° Southwest 188 216 12,100  Level Washington Center
Tue 11:00:03 AM 35.7961 -77.2489 214° Southwest 188 216 12,100  Level Washington Center
Tue 11:01:01 AM 35.7539 -77.2786 210° Southwest 188 216 12,100  Level Washington Center
Tue 11:02:01 AM 35.7056 -77.3108 208° Southwest 188 216 12,100  Level Washington Center
Tue 11:03:02 AM 35.6614 -77.3458 213° Southwest 188 216 12,100  Level Washington Center
Tue 11:04:02 AM 35.6169 -77.3781 211° Southwest 188 216 12,100  Level Washington Center
Tue 11:05:03 AM 35.5725 -77.4128 212° Southwest 188 216 12,100  Level Washington Center
Tue 11:06:01 AM 35.5261 -77.4450 209° Southwest 193 222 12,100  Level Washington Center
Tue 11:07:02 AM 35.4839 -77.4769 212° Southwest 188 216 12,100  Level Washington Center
Tue 11:08:02 AM 35.4375 -77.5092 210° Southwest 188 216 12,100  Level Washington Center
Tue 11:09:03 AM 35.3953 -77.5411 212° Southwest 188 216 12,100  Level Washington Center
Tue 11:10:01 AM 35.3508 -77.5783 214° Southwest 188 216 12,100  Level Washington Center
Tue 11:11:01 AM 35.3086 -77.6103 212° Southwest 188 216 12,100  Level Washington Center
Tue 11:12:01 AM 35.2642 -77.6475 214° Southwest 193 222 12,100  Level Washington Center
Tue 11:13:02 AM 35.2217 -77.6844 215° Southwest 193 222 12,100  Level Washington Center
Tue 11:14:03 AM 35.1794 -77.7189 214° Southwest 193 222 12,100  Level Washington Center
Tue 11:15:01 AM 35.1331 -77.7533 211° Southwest 193 222 12,100 -50 Level Washington Center
Tue 11:16:02 AM 35.0906 -77.7903 215° Southwest 193 222 12,000  Descending Washington Center
Tue 11:17:03 AM 35.0461 -77.8247 212° Southwest 193 222 12,100 50 Climbing Washington Center
Tue 11:18:03 AM 35.0017 -77.8614 214° Southwest 193 222 12,100  Level Washington Center
Tue 11:19:01 AM 34.9592 -77.8956 213° Southwest 193 222 12,100  Level Washington Center
Tue 11:20:02 AM 34.9167 -77.9325 215° Southwest 193 222 12,100  Level Washington Center
Tue 11:21:03 AM 34.8700 -77.9692 213° Southwest 193 222 12,100  Level Washington Center
Tue 11:22:01 AM 34.8258 -77.9956 206° Southwest 188 216 12,100  Level Washington Center
Tue 11:23:02 AM 34.7833 -78.0347 217° Southwest 188 216 12,100  Level Washington Center
Tue 11:24:03 AM 34.7367 -78.0689 211° Southwest 194 223 12,100 -50 Level Washington Center
Tue 11:25:01 AM 34.6900 -78.1028 211° Southwest 194 223 12,000 -50 Descending Washington Center
Tue 11:26:02 AM 34.6456 -78.1367 212° Southwest 194 223 12,000  Level Washington Center
Tue 11:27:02 AM 34.6011 -78.1681 210° Southwest 194 223 12,000  Level Washington Center
Tue 11:28:03 AM 34.5544 -78.1994 209° Southwest 194 223 12,000  Level Washington Center
Tue 11:29:01 AM 34.5100 -78.2333 212° Southwest 189 217 12,000  Level Washington Center
Tue 11:30:51 AM 34.4244 -78.2939 210° Southwest 193 222 12,000  Level Jacksonville Center
Tue 11:31:51 AM 34.3797 -78.3264 211° Southwest 198 228 12,000  Level Jacksonville Center
Tue 11:32:51 AM 34.3331 -78.3617 212° Southwest 198 228 12,000  Level Jacksonville Center
Tue 11:33:51 AM 34.2881 -78.3939 211° Southwest 198 228 12,000  Level Jacksonville Center
Tue 11:34:51 AM 34.2414 -78.4267 210° Southwest 198 228 12,000  Level Jacksonville Center
Tue 11:35:51 AM 34.1925 -78.4617 211° Southwest 198 228 12,000 -50 Level Jacksonville Center
Tue 11:36:51 AM 34.1458 -78.4967 212° Southwest 198 228 11,900  Descending Jacksonville Center
Tue 11:37:51 AM 34.1119 -78.5411 227° Southwest 198 228 12,000 50 Climbing Jacksonville Center
Tue 11:38:51 AM 34.0758 -78.5856 226° Southwest 193 222 12,000  Level Jacksonville Center
Tue 11:39:51 AM 34.0397 -78.6297 225° Southwest 188 216 12,000  Level Jacksonville Center
Tue 11:40:51 AM 34.0036 -78.6742 226° Southwest 188 216 12,000  Level Jacksonville Center
Tue 11:41:51 AM 33.9678 -78.7186 226° Southwest 193 222 12,000  Level Jacksonville Center
Tue 11:42:51 AM 33.9317 -78.7628 225° Southwest 193 222 12,000  Level Jacksonville Center
Tue 11:43:51 AM 33.8956 -78.8094 227° Southwest 193 222 12,000  Level Jacksonville Center
Tue 11:44:51 AM 33.8594 -78.8536 225° Southwest 193 222 12,000  Level Jacksonville Center
Tue 11:45:51 AM 33.8233 -78.8978 225° Southwest 193 222 12,000  Level Jacksonville Center
Tue 11:46:51 AM 33.7892 -78.9419 227° Southwest 193 222 12,000  Level Jacksonville Center
Tue 11:47:51 AM 33.7486 -78.9836 221° Southwest 199 229 12,000  Level Jacksonville Center
Tue 11:48:51 AM 33.7167 -79.0300 230° Southwest 194 223 12,000  Level Jacksonville Center
Tue 11:49:51 AM 33.6825 -79.0739 227° Southwest 194 223 12,000  Level Jacksonville Center
Tue 11:50:51 AM 33.6464 -79.1178 225° Southwest 194 223 12,000  Level Jacksonville Center
Tue 11:51:51 AM 33.6183 -79.1564 229° Southwest 194 223 12,000  Level Jacksonville Center
Tue 11:52:51 AM 33.5819 -79.2006 225° Southwest 194 223 12,000  Level Jacksonville Center
Tue 11:53:52 AM 33.5436 -79.2444 224° Southwest 194 223 12,000 -50 Level Jacksonville Center
Tue 11:54:51 AM 33.5075 -79.2906 227° Southwest 194 223 11,900  Descending Jacksonville Center
Tue 11:55:51 AM 33.4647 -79.3247 214° Southwest 194 223 12,000 50 Climbing Jacksonville Center
Tue 11:56:51 AM 33.4153 -79.3517 204° Southwest 194 223 12,000  Level Jacksonville Center
Tue 11:57:51 AM 33.3725 -79.3858 214° Southwest 194 223 12,000  Level Jacksonville Center
Tue 11:58:51 AM 33.3294 -79.4172 211° Southwest 188 216 12,000  Level Jacksonville Center
Tue 11:59:51 AM 33.2972 -79.4631 230° Southwest 188 216 12,000  Level Jacksonville Center
Tue 12:00:52 PM 33.2672 -79.5117 234° Southwest 183 211 12,000  Level Jacksonville Center
Tue 12:01:51 PM 33.2331 -79.5600 230° Southwest 183 211 12,000 -50 Level Jacksonville Center
Tue 12:02:52 PM 33.2008 -79.6058 230° Southwest 183 211 11,900 -50 Descending Jacksonville Center
Tue 12:03:51 PM 33.1686 -79.6492 228° Southwest 183 211 11,900 50 Level Jacksonville Center
Tue 12:04:51 PM 33.1344 -79.6978 230° Southwest 188 216 12,000 50 Climbing Jacksonville Center
Tue 12:05:51 PM 33.1022 -79.7458 231° Southwest 188 216 12,000  Level Jacksonville Center
Tue 12:06:51 PM 33.0700 -79.7917 230° Southwest 188 216 12,000  Level Jacksonville Center
Tue 12:07:51 PM 33.0356 -79.8375 228° Southwest 188 216 12,000  Level Jacksonville Center
Tue 12:08:51 PM 33.0033 -79.8856 231° Southwest 188 216 12,000  Level Jacksonville Center
Tue 12:09:51 PM 32.9692 -79.9339 230° Southwest 188 216 12,000  Level Jacksonville Center
Tue 12:10:51 PM 32.9347 -79.9794 228° Southwest 188 216 12,000  Level Jacksonville Center
Tue 12:11:51 PM 32.9022 -80.0275 231° Southwest 188 216 12,000  Level Jacksonville Center
Tue 12:12:51 PM 32.8614 -80.0658 218° Southwest 188 216 12,000 -50 Level Jacksonville Center
Tue 12:13:51 PM 32.8164 -80.0994 212° Southwest 188 216 11,900  Descending Jacksonville Center
Tue 12:14:51 PM 32.7753 -80.1353 216° Southwest 194 223 12,000 50 Climbing Jacksonville Center
Tue 12:15:51 PM 32.7300 -80.1689 212° Southwest 189 217 12,000  Level Jacksonville Center
Tue 12:16:51 PM 32.6869 -80.2022 213° Southwest 189 217 12,000  Level Jacksonville Center
Tue 12:17:51 PM 32.6417 -80.2356 212° Southwest 189 217 12,000  Level Jacksonville Center
Tue 12:18:51 PM 32.5967 -80.2714 214° Southwest 189 217 12,000  Level Jacksonville Center
Tue 12:19:51 PM 32.5514 -80.3072 214° Southwest 189 217 12,000 50 Level Jacksonville Center
Tue 12:20:52 PM 32.5061 -80.3406 212° Southwest 189 217 12,100 100 Climbing Jacksonville Center
Tue 12:21:51 PM 32.4631 -80.3714 211° Southwest 189 217 12,200 -50 Climbing Jacksonville Center
Tue 12:22:51 PM 32.4175 -80.4022 210° Southwest 189 217 12,000 -100 Descending Jacksonville Center
Tue 12:23:51 PM 32.3725 -80.4378 214° Southwest 195 224 12,000 50 Level Jacksonville Center
Tue 12:24:51 PM 32.3272 -80.4708 212° Southwest 195 224 12,100 50 Climbing Jacksonville Center
Tue 12:25:51 PM 32.2817 -80.5042 212° Southwest 195 224 12,100 -50 Level Jacksonville Center
Tue 12:26:51 PM 32.2386 -80.5347 211° Southwest 190 219 12,000 -50 Descending Jacksonville Center
Tue 12:27:51 PM 32.1953 -80.5703 215° Southwest 190 219 12,000 -50 Level Jacksonville Center
Tue 12:28:51 PM 32.1522 -80.6081 217° Southwest 190 219 11,900 -50 Descending Jacksonville Center
Tue 12:29:51 PM 32.1131 -80.6408 215° Southwest 190 219 11,900 100 Level Jacksonville Center
Tue 12:30:51 PM 32.0722 -80.6861 223° Southwest 190 219 12,100 100 Climbing Jacksonville Center
Tue 12:31:51 PM 32.0331 -80.7239 219° Southwest 190 219 12,100  Level Jacksonville Center
Tue 12:32:51 PM 31.9939 -80.7542 213° Southwest 189 217 12,100  Level Jacksonville Center
Tue 12:33:51 PM 31.9467 -80.7894 212° Southwest 194 223 12,100  Level Jacksonville Center
Tue 12:34:51 PM 31.9011 -80.8222 211° Southwest 189 217 12,100 -50 Level Jacksonville Center
Tue 12:35:51 PM 31.8619 -80.8550 215° Southwest 189 217 12,000 -50 Descending Jacksonville Center
Tue 12:36:51 PM 31.8147 -80.8928 214° Southwest 194 223 12,000  Level Jacksonville Center
Tue 12:37:51 PM 31.7775 -80.9253 217° Southwest 194 223 12,000  Level Jacksonville Center
Tue 12:38:51 PM 31.7303 -80.9653 216° Southwest 194 223 12,000  Level Jacksonville Center
Tue 12:39:51 PM 31.6889 -81.0028 218° Southwest 194 223 12,000  Level Jacksonville Center
Tue 12:40:51 PM 31.6519 -81.0378 219° Southwest 194 223 12,000  Level Jacksonville Center
Tue 12:41:51 PM 31.6044 -81.0778 216° Southwest 194 223 12,000  Level Jacksonville Center
Tue 12:42:51 PM 31.5633 -81.1150 218° Southwest 194 223 12,000  Level Jacksonville Center
Tue 12:43:51 PM 31.5261 -81.1475 217° Southwest 194 223 12,000  Level Jacksonville Center
Tue 12:44:51 PM 31.4786 -81.1897 217° Southwest 194 223 12,000  Level Jacksonville Center
Tue 12:45:52 PM 31.4414 -81.2222 217° Southwest 194 223 12,000  Level Jacksonville Center
Tue 12:46:51 PM 31.3961 -81.2619 217° Southwest 194 223 12,000  Level Jacksonville Center
Tue 12:47:51 PM 31.3506 -81.2992 215° Southwest 201 231 12,000  Level Jacksonville Center
Tue 12:48:51 PM 31.3133 -81.3339 219° Southwest 201 231 12,000  Level Jacksonville Center
Tue 12:49:51 PM 31.2700 -81.3686 214° Southwest 201 231 12,000  Level Jacksonville Center
Tue 12:50:51 PM 31.2286 -81.4081 219° Southwest 201 231 12,000  Level Jacksonville Center
Tue 12:51:51 PM 31.1853 -81.4453 216° Southwest 201 231 12,000  Level Jacksonville Center
Tue 12:52:51 PM 31.1419 -81.4822 216° Southwest 201 231 12,000  Level Jacksonville Center
Tue 12:53:12 PM 31.1233 -81.4972 215° Southwest 190 219 12,000  Level Jacksonville Center
Tue 12:53:37 PM 31.1067 -81.5119 217° Southwest 191 220 12,000  Level Jacksonville Center
Tue 12:54:38 PM 31.0611 -81.5514 217° Southwest 193 222 12,000 98 Level Jacksonville Center
Tue 12:55:39 PM 31.0197 -81.5858 215° Southwest 186 214 12,200 52 Climbing Jacksonville Center
Tue 12:56:34 PM 30.9825 -81.6203 218° Southwest 186 214 12,100 -83 Descending Jacksonville Center
Tue 12:56:51 PM 30.9722 -81.6278 212° Southwest 201 231 12,100  Level Jacksonville Center
Tue 12:57:51 PM 30.9331 -81.6672 221° Southwest 201 231 12,100  Level Jacksonville Center
Tue 12:58:51 PM 30.8894 -81.7014 214° Southwest 201 231 12,100  Level Jacksonville Center
Tue 12:59:43 PM 30.8481 -81.7336 214° Southwest 189 217 12,100  Level Jacksonville Center
Tue 01:00:52 PM 30.8044 -81.7753 219° Southwest 201 231 12,100  Level Jacksonville Center
Tue 01:01:39 PM 30.7650 -81.8047 213° Southwest 186 214 12,100  Level Jacksonville Center
Tue 01:02:51 PM 30.7194 -81.8461 218° Southwest 201 231 12,100  Level Jacksonville Center
Tue 01:03:41 PM 30.6822 -81.8781 216° Southwest 183 211 12,100  Level Jacksonville Center
Tue 01:04:42 PM 30.6406 -81.9122 215° Southwest 184 212 12,100  Level Jacksonville Center
Tue 01:05:43 PM 30.5972 -81.9489 216° Southwest 182 209 12,100  Level Jacksonville Center
Tue 01:06:44 PM 30.5556 -81.9831 215° Southwest 184 212 12,100  Level Jacksonville Center
Tue 01:07:45 PM 30.5142 -82.0197 217° Southwest 183 211 12,100  Level Jacksonville Center
Tue 01:08:46 PM 30.4725 -82.0514 213° Southwest 184 212 12,100 49 Level Jacksonville Center
Tue 01:09:47 PM 30.4206 -82.0686 196° South 186 214 12,200  Climbing Jacksonville Center
Tue 01:11:00 PM 30.3581 -82.0861 194° South 189 217 12,100 -43 Descending Jacksonville Center
Tue 01:12:07 PM 30.3017 -82.1033 195° South 187 215 12,100 -141 Level Jacksonville Center
Tue 01:13:08 PM 30.2494 -82.1158 192° South 192 221 11,800 -344 Descending Jacksonville Center
Tue 01:14:09 PM 30.1933 -82.1331 195° South 206 237 11,400 -362 Descending Jacksonville Center
Tue 01:15:04 PM 30.1411 -82.1481 194° South 208 239 11,100 -231 Descending Jacksonville Center
Tue 01:15:27 PM 30.1244 -82.1531 195° South 206 237 11,100  Level Jacksonville Center
Tue 01:16:27 PM 30.0725 -82.1653 192° South 200 230 11,100  Level Jacksonville Center
Tue 01:17:27 PM 30.0181 -82.1825 195° South 200 230 11,100  Level Jacksonville Center
Tue 01:18:27 PM 29.9681 -82.1950 192° South 200 230 11,100 50 Level Jacksonville Center
Tue 01:19:27 PM 29.9181 -82.2094 194° South 200 230 11,200  Climbing Jacksonville Center
Tue 01:20:27 PM 29.8661 -82.2267 196° South 195 224 11,100 -50 Descending Jacksonville Center
Tue 01:21:27 PM 29.8161 -82.2414 194° South 195 224 11,100  Level Jacksonville Center
Tue 01:22:27 PM 29.7658 -82.2561 194° South 190 219 11,100  Level Jacksonville Center
Tue 01:23:27 PM 29.7117 -82.2683 191° South 190 219 11,100  Level Jacksonville Center
Tue 01:24:27 PM 29.6594 -82.2689 181° South 190 219 11,100  Level Jacksonville Center
Tue 01:25:27 PM 29.6031 -82.2594 172° South 195 224 11,100  Level Jacksonville Center
Tue 01:26:27 PM 29.5508 -82.2528 174° South 195 224 11,100  Level Jacksonville Center
Tue 01:27:27 PM 29.4944 -82.2436 172° South 195 224 11,100 100 Level Jacksonville Center
Tue 01:28:27 PM 29.4444 -82.2464 183° South 195 224 11,300 -50 Climbing Jacksonville Center
Tue 01:29:27 PM 29.3922 -82.2442 178° South 195 224 11,000 -50 Descending Jacksonville Center
Tue 01:30:27 PM 29.3400 -82.2375 174° South 195 224 11,200  Climbing Jacksonville Center
Tue 01:31:27 PM 29.2836 -82.2331 176° South 195 224 11,000  Descending Jacksonville Center
Tue 01:32:15 PM 29.2419 -82.2286 175° South 196 226 11,200 -50 Climbing Jacksonville Center
Tue 01:33:27 PM 29.1750 -82.2147 170° South 195 224 10,900 -375 Descending Jacksonville Center
Tue 01:34:23 PM 29.1206 -82.2081 174° South 214 246 10,400 -700 Descending Jacksonville Center
Tue 01:35:27 PM 29.0558 -82.1942 169° South 212 244 9,500 -851 Descending Jacksonville Center
Tue 01:36:37 PM 28.9828 -82.1853 174° South 230 265 8,500 -1,053 Descending Jacksonville Center
Tue 01:37:38 PM 28.9158 -82.1739 172° South 235 270 7,200 -738 Descending Jacksonville Center
Tue 01:38:39 PM 28.8531 -82.1553 165° South 233 268 7,000  Descending Jacksonville Center
Tue 01:39:27 PM 28.8133 -82.1439 166° South 226 260 7,200 111 Climbing Jacksonville Center
Tue 01:40:27 PM 28.7569 -82.1347 172° South 214 246 7,200 -50 Level Jacksonville Center
Tue 01:41:27 PM 28.7006 -82.1281 174° South 214 246 7,100 -96 Descending Jacksonville Center
Tue 01:43:35 PM 28.5667 -82.1167 176° South 203 234 6,900 -351 Descending Tampa TRACON
Tue 01:44:35 PM 28.5167 -82.0833 150° Southeast 224 258 6,000 -750 Descending Tampa TRACON
Tue 01:45:35 PM 28.4500 -82.0667 168° South 220 253 5,400 -700 Descending Tampa TRACON
Tue 01:46:35 PM 28.4000 -82.0333 150° Southeast 212 244 4,600 -700 Descending Tampa TRACON
Tue 01:47:35 PM 28.3500 -82.0167 164° South 201 231 4,000 -350 Descending Tampa TRACON
Tue 01:48:35 PM 28.3000 -82.0167 180° South 185 213 3,900 50 Descending Tampa TRACON
Tue 01:49:35 PM 28.2500 -82.0167 180° South 179 206 4,100 -158 Climbing Tampa TRACON
Tue 01:50:29 PM 28.2000 -82.0167 180° South 192 221 3,600 -783 Descending Tampa TRACON
Tue 01:51:30 PM 28.1500 -82.0000 164° South 205 236 2,600 -800 Descending Tampa TRACON
Tue 01:52:29 PM 28.0833 -81.9833 168° South 196 226 2,000 -480 Descending Tampa TRACON
Tue 01:53:35 PM 28.0333 -81.9667 164° South 177 204 1,600 -238 Descending Tampa TRACON
Tue 01:54:35 PM 28.0000 -81.9500 156° South 145 167 1,500 -100 Descending Tampa TRACON
Tue 01:56:00 PM 27.9833 -82.0167 180° South  Level FlightAware Approximate
Tue 02:03:00 PM 27.9889 -82.0186 180° South  Level Estimated
Tue 02:04:00 PM 27.9833 -82.0167 180° South  Level FlightAware Approximate

Login

Don't have an account? Register now (free) for customized features, flight alerts, and more!